createdAt,value
2019-03-31T00:00:11.430Z,27.53
2019-03-31T00:02:40.269Z,28.40
2019-03-31T00:05:08.902Z,28.65
2019-03-31T00:07:37.573Z,33.67
2019-03-31T00:10:07.802Z,25.90
2019-03-31T00:12:36.638Z,27.82
2019-03-31T00:15:07.664Z,24.20
2019-03-31T00:17:36.151Z,30.65
2019-03-31T00:20:05.794Z,29.20
2019-03-31T00:22:34.387Z,25.90
2019-03-31T00:25:03.140Z,24.18
2019-03-31T00:27:31.763Z,27.00
2019-03-31T00:30:00.506Z,25.63
2019-03-31T00:32:29.070Z,28.15
2019-03-31T00:34:57.563Z,26.55
2019-03-31T00:37:26.473Z,27.52
2019-03-31T00:39:55.102Z,22.50
2019-03-31T00:42:23.602Z,25.45
2019-03-31T00:44:52.093Z,27.93
2019-03-31T00:47:21.028Z,22.02
2019-03-31T00:49:50.107Z,27.52
2019-03-31T00:52:18.602Z,28.47
2019-03-31T00:54:47.104Z,25.97
2019-03-31T00:57:15.920Z,27.95
2019-03-31T00:59:44.516Z,27.05
2019-03-31T01:02:18.095Z,23.60
2019-03-31T01:04:47.035Z,22.57
2019-03-31T01:07:16.041Z,23.00
2019-03-31T01:09:45.051Z,34.95
2019-03-31T01:12:13.787Z,27.73
2019-03-31T01:14:43.697Z,25.63
2019-03-31T01:17:12.703Z,25.13
2019-03-31T01:19:41.511Z,23.93
2019-03-31T01:22:10.257Z,33.53
2019-03-31T01:24:38.962Z,24.77
2019-03-31T01:27:10.095Z,25.90
2019-03-31T01:29:38.590Z,21.13
2019-03-31T01:32:07.221Z,27.05
2019-03-31T01:34:35.981Z,25.68
2019-03-31T01:37:05.409Z,27.47
2019-03-31T01:39:34.725Z,26.27
2019-03-31T01:42:03.675Z,24.53
2019-03-31T01:44:32.245Z,27.80
2019-03-31T01:47:00.886Z,23.07
2019-03-31T01:49:31.628Z,25.50
2019-03-31T01:52:00.259Z,24.50
2019-03-31T01:54:28.832Z,28.30
2019-03-31T01:56:57.578Z,28.80
2019-03-31T01:59:26.217Z,33.63
2019-03-31T02:02:04.131Z,34.80
2019-03-31T02:04:25.173Z,43.03
2019-03-31T02:06:53.819Z,32.93
2019-03-31T02:09:22.508Z,32.03
2019-03-31T02:11:51.103Z,31.53
2019-03-31T02:14:19.677Z,31.07
2019-03-31T02:16:48.243Z,32.03
2019-03-31T02:19:16.987Z,33.30
2019-03-31T02:21:45.489Z,32.67
2019-03-31T02:24:14.056Z,32.60
2019-03-31T02:26:42.742Z,33.47
2019-03-31T02:29:11.370Z,30.57
2019-03-31T02:31:39.887Z,30.93
2019-03-31T02:34:08.483Z,28.43
2019-03-31T02:36:37.105Z,27.50
2019-03-31T02:39:06.105Z,30.60
2019-03-31T02:41:34.705Z,32.13
2019-03-31T02:44:03.345Z,32.53
2019-03-31T02:46:32.047Z,32.90
2019-03-31T02:49:00.732Z,35.27
2019-03-31T02:51:29.591Z,34.03
2019-03-31T02:53:58.275Z,35.30
2019-03-31T02:56:28.055Z,34.67
2019-03-31T02:58:58.682Z,30.00
2019-03-31T03:01:29.647Z,33.87
2019-03-31T03:04:00.538Z,34.80
2019-03-31T03:06:31.143Z,35.27
2019-03-31T03:09:01.614Z,34.73
2019-03-31T03:11:31.623Z,33.50
2019-03-31T03:14:03.553Z,34.90
2019-03-31T03:16:32.057Z,41.63
2019-03-31T03:19:00.709Z,33.03
2019-03-31T03:21:29.337Z,32.93
2019-03-31T03:23:57.995Z,34.47
2019-03-31T03:26:26.657Z,36.03
2019-03-31T03:28:55.308Z,33.57
2019-03-31T03:31:24.028Z,37.17
2019-03-31T03:33:52.697Z,34.37
2019-03-31T03:36:21.217Z,29.40
2019-03-31T03:38:49.836Z,33.80
2019-03-31T03:41:18.431Z,35.10
2019-03-31T03:43:55.728Z,35.33
2019-03-31T03:46:17.421Z,32.27
2019-03-31T03:48:46.358Z,37.77
2019-03-31T03:51:15.056Z,34.47
2019-03-31T03:53:43.546Z,32.97
2019-03-31T03:56:12.221Z,39.17
2019-03-31T03:58:40.842Z,33.23
2019-03-31T04:01:13.714Z,34.37
2019-03-31T04:03:42.303Z,35.93
2019-03-31T04:06:10.938Z,32.93
2019-03-31T04:08:39.569Z,33.47
2019-03-31T04:11:20.773Z,34.67
2019-03-31T04:13:46.826Z,32.90
2019-03-31T04:16:15.462Z,38.27
2019-03-31T04:18:44.110Z,32.83
2019-03-31T04:21:12.757Z,34.10
2019-03-31T04:23:41.382Z,34.07
2019-03-31T04:26:10.411Z,37.17
2019-03-31T04:28:38.972Z,37.53
2019-03-31T04:31:07.613Z,33.60
2019-03-31T04:33:50.221Z,27.63
2019-03-31T04:36:06.562Z,30.57
2019-03-31T04:38:35.127Z,33.92
2019-03-31T04:41:03.810Z,30.12
2019-03-31T04:43:32.437Z,33.08
2019-03-31T04:46:01.077Z,32.40
2019-03-31T04:48:29.801Z,32.58
2019-03-31T04:50:58.435Z,30.40
2019-03-31T04:53:27.064Z,29.02
2019-03-31T04:55:55.652Z,39.08
2019-03-31T04:58:24.228Z,43.02
2019-03-31T05:00:52.865Z,35.28
2019-03-31T05:03:21.714Z,32.63
2019-03-31T05:05:50.282Z,45.12
2019-03-31T05:08:18.786Z,32.85
2019-03-31T05:10:47.665Z,36.45
2019-03-31T05:13:16.298Z,27.60
2019-03-31T05:15:44.796Z,32.30
2019-03-31T05:18:13.518Z,27.32
2019-03-31T05:20:42.219Z,26.15
2019-03-31T05:23:10.933Z,29.72
2019-03-31T05:25:39.677Z,30.50
2019-03-31T05:28:08.182Z,27.05
2019-03-31T05:30:36.825Z,31.45
2019-03-31T05:33:05.499Z,30.95
2019-03-31T05:35:34.079Z,26.90
2019-03-31T05:38:02.714Z,29.27
2019-03-31T05:40:31.245Z,22.98
2019-03-31T05:42:59.827Z,29.12
2019-03-31T05:45:28.503Z,30.75
2019-03-31T05:47:57.182Z,26.57
2019-03-31T05:50:25.745Z,25.95
2019-03-31T05:52:54.615Z,29.52
2019-03-31T05:55:23.288Z,33.08
2019-03-31T05:57:51.954Z,40.28
2019-03-31T06:00:39.468Z,37.28
2019-03-31T06:03:08.103Z,34.85
2019-03-31T06:05:36.746Z,35.70
2019-03-31T06:08:05.430Z,39.65
2019-03-31T06:10:33.935Z,34.80
2019-03-31T06:13:02.582Z,41.92
2019-03-31T06:15:31.269Z,36.80
2019-03-31T06:17:59.764Z,39.27
2019-03-31T06:20:28.436Z,35.13
2019-03-31T06:22:57.246Z,38.88
2019-03-31T06:25:25.749Z,40.43
2019-03-31T06:27:54.255Z,42.73
2019-03-31T06:30:23.602Z,43.23
2019-03-31T06:32:55.322Z,42.80
2019-03-31T06:35:22.476Z,38.80
2019-03-31T06:37:51.121Z,38.28
2019-03-31T06:40:19.765Z,31.45
2019-03-31T06:42:48.417Z,32.55
2019-03-31T06:45:17.114Z,34.90
2019-03-31T06:47:45.604Z,33.98
2019-03-31T06:50:14.246Z,35.60
2019-03-31T06:52:42.933Z,39.00
2019-03-31T06:55:11.600Z,36.77
2019-03-31T06:57:40.248Z,38.23
2019-03-31T07:00:09.775Z,36.38
2019-03-31T07:02:38.411Z,37.40
2019-03-31T07:05:08.520Z,33.95
2019-03-31T07:07:37.191Z,35.33
2019-03-31T07:10:08.001Z,35.38
2019-03-31T07:12:36.869Z,36.03
2019-03-31T07:15:08.180Z,30.75
2019-03-31T07:17:36.827Z,30.48
2019-03-31T07:20:08.701Z,25.60
2019-03-31T07:22:37.375Z,24.40
2019-03-31T07:25:08.911Z,19.52
2019-03-31T07:27:38.555Z,25.25
2019-03-31T07:30:16.082Z,19.45
2019-03-31T07:32:44.750Z,13.65
2019-03-31T07:35:18.595Z,15.23
2019-03-31T07:37:47.588Z,15.93
2019-03-31T07:40:20.131Z,15.20
2019-03-31T07:42:51.136Z,14.05
2019-03-31T07:45:20.254Z,14.00
2019-03-31T07:47:49.134Z,15.75
2019-03-31T07:50:19.445Z,15.65
2019-03-31T07:52:48.279Z,14.15
2019-03-31T07:55:17.149Z,13.83
2019-03-31T07:57:45.671Z,12.78
2019-03-31T08:00:19.614Z,13.22
2019-03-31T08:02:48.292Z,11.08
2019-03-31T08:05:32.048Z,13.00
2019-03-31T08:07:47.926Z,11.20
2019-03-31T08:10:16.812Z,11.43
2019-03-31T08:12:45.451Z,13.43
2019-03-31T08:15:14.485Z,10.90
2019-03-31T08:17:43.164Z,12.60
2019-03-31T08:20:13.949Z,11.40
2019-03-31T08:22:42.443Z,12.43
2019-03-31T08:25:13.114Z,11.12
2019-03-31T08:27:41.751Z,10.98
2019-03-31T08:30:12.982Z,11.68
2019-03-31T08:32:42.166Z,10.60
2019-03-31T08:35:10.998Z,9.83
2019-03-31T08:37:39.829Z,10.72
2019-03-31T08:40:10.434Z,7.90
2019-03-31T08:42:39.098Z,9.38
2019-03-31T08:45:09.125Z,9.03
2019-03-31T08:47:38.178Z,10.23
2019-03-31T08:50:07.691Z,9.58
2019-03-31T08:52:36.287Z,9.75
2019-03-31T08:55:07.331Z,10.08
2019-03-31T08:57:36.007Z,8.03
2019-03-31T09:00:07.192Z,9.25
2019-03-31T09:02:36.198Z,10.45
2019-03-31T09:05:07.536Z,7.80
2019-03-31T09:07:36.209Z,9.28
2019-03-31T09:10:07.144Z,8.73
2019-03-31T09:12:35.975Z,8.18
2019-03-31T09:15:06.857Z,8.25
2019-03-31T09:17:35.419Z,10.00
2019-03-31T09:20:05.892Z,8.60
2019-03-31T09:22:34.721Z,8.80
2019-03-31T09:25:03.372Z,6.25
2019-03-31T09:27:31.863Z,8.15
2019-03-31T09:30:00.675Z,6.33
2019-03-31T09:32:29.245Z,6.53
2019-03-31T09:34:57.737Z,6.50
2019-03-31T09:37:26.413Z,7.15
2019-03-31T09:39:54.906Z,7.17
2019-03-31T09:42:23.467Z,7.45
2019-03-31T09:44:52.130Z,7.10
2019-03-31T09:47:20.824Z,9.20
2019-03-31T09:49:49.391Z,7.20
2019-03-31T09:52:18.142Z,8.13
2019-03-31T09:54:46.766Z,7.85
2019-03-31T09:57:15.400Z,6.92
2019-03-31T09:59:44.100Z,10.53
2019-03-31T10:02:12.838Z,11.50
2019-03-31T10:04:41.470Z,6.87
2019-03-31T10:07:10.145Z,7.92
2019-03-31T10:09:38.691Z,8.35
2019-03-31T10:12:07.355Z,7.92
2019-03-31T10:14:36.116Z,6.65
2019-03-31T10:17:04.848Z,6.58
2019-03-31T10:19:33.340Z,6.65
2019-03-31T10:22:02.013Z,6.15
2019-03-31T10:24:30.643Z,6.03
2019-03-31T10:26:59.278Z,6.37
2019-03-31T10:29:27.814Z,10.53
2019-03-31T10:31:56.309Z,8.33
2019-03-31T10:34:24.928Z,6.40
2019-03-31T10:36:53.855Z,4.03
2019-03-31T10:39:22.425Z,6.97
2019-03-31T10:41:50.917Z,5.00
2019-03-31T10:44:19.592Z,6.70
2019-03-31T10:46:48.255Z,6.45
2019-03-31T10:49:16.755Z,6.58
2019-03-31T10:51:45.257Z,8.30
2019-03-31T10:54:13.886Z,6.92
2019-03-31T10:56:42.413Z,5.30
2019-03-31T10:59:11.073Z,5.62
2019-03-31T11:01:39.835Z,5.55
2019-03-31T11:04:08.675Z,5.87
2019-03-31T11:06:37.170Z,9.23
2019-03-31T11:09:06.835Z,8.25
2019-03-31T11:11:35.516Z,5.87
2019-03-31T11:14:04.193Z,5.62
2019-03-31T11:16:32.757Z,3.62
2019-03-31T11:19:01.444Z,4.12
2019-03-31T11:21:31.705Z,4.90
2019-03-31T11:24:00.388Z,4.67
2019-03-31T11:26:29.219Z,5.50
2019-03-31T11:28:57.881Z,6.25
2019-03-31T11:31:26.514Z,6.40
2019-03-31T11:33:55.035Z,4.58
2019-03-31T11:36:23.669Z,4.92
2019-03-31T11:38:52.172Z,4.90
2019-03-31T11:41:20.694Z,4.30
2019-03-31T11:43:49.326Z,4.47
2019-03-31T11:46:17.949Z,5.72
2019-03-31T11:48:46.482Z,3.98
2019-03-31T11:51:14.974Z,4.17
2019-03-31T11:53:43.605Z,4.55
2019-03-31T11:56:12.510Z,6.40
2019-03-31T11:58:41.079Z,4.67
2019-03-31T12:01:09.640Z,5.15
2019-03-31T12:03:38.324Z,4.20
2019-03-31T12:06:07.057Z,3.10
2019-03-31T12:08:35.638Z,2.80
2019-03-31T12:11:04.403Z,3.55
2019-03-31T12:13:33.033Z,3.35
2019-03-31T12:16:01.591Z,3.17
2019-03-31T12:18:30.272Z,3.08
2019-03-31T12:20:58.907Z,3.12
2019-03-31T12:23:27.490Z,3.35
2019-03-31T12:25:56.048Z,3.15
2019-03-31T12:28:24.713Z,3.20
2019-03-31T12:30:53.349Z,3.00
2019-03-31T12:33:21.851Z,2.92
2019-03-31T12:35:50.379Z,2.87
2019-03-31T12:38:19.014Z,3.40
2019-03-31T12:40:47.652Z,2.27
2019-03-31T12:43:16.257Z,2.17
2019-03-31T12:45:44.831Z,7.55
2019-03-31T12:48:13.479Z,2.58
2019-03-31T12:50:42.149Z,3.35
2019-03-31T12:53:10.712Z,3.58
2019-03-31T12:55:39.353Z,1.70
2019-03-31T12:58:07.898Z,1.98
2019-03-31T13:00:36.513Z,1.70
2019-03-31T13:03:05.175Z,1.67
2019-03-31T13:05:33.843Z,2.55
2019-03-31T13:08:02.432Z,2.20
2019-03-31T13:10:31.001Z,2.20
2019-03-31T13:12:59.673Z,2.00
2019-03-31T13:15:28.370Z,2.30
2019-03-31T13:17:57.002Z,2.45
2019-03-31T13:20:25.608Z,2.85
2019-03-31T13:22:54.247Z,1.70
2019-03-31T13:25:22.876Z,2.58
2019-03-31T13:27:51.540Z,4.05
2019-03-31T13:30:21.955Z,2.10
2019-03-31T13:32:50.543Z,1.52
2019-03-31T13:35:19.239Z,2.33
2019-03-31T13:37:47.874Z,1.40
2019-03-31T13:40:16.504Z,1.87
2019-03-31T13:42:45.054Z,1.87
2019-03-31T13:45:13.885Z,1.67
2019-03-31T13:47:42.516Z,1.50
2019-03-31T13:50:12.530Z,2.15
2019-03-31T13:52:41.091Z,2.90
2019-03-31T13:55:10.023Z,2.67
2019-03-31T13:57:40.176Z,2.50
2019-03-31T14:00:10.756Z,3.25
2019-03-31T14:02:40.083Z,2.67
2019-03-31T14:05:09.213Z,3.15
2019-03-31T14:07:37.847Z,2.47
2019-03-31T14:10:07.599Z,2.67
2019-03-31T14:12:36.191Z,2.12
2019-03-31T14:15:19.111Z,2.62
2019-03-31T14:17:38.180Z,2.02
2019-03-31T14:20:07.556Z,2.15
2019-03-31T14:22:36.189Z,3.42
2019-03-31T14:25:06.337Z,3.70
2019-03-31T14:27:34.936Z,4.72
2019-03-31T14:30:05.394Z,1.85
2019-03-31T14:32:34.006Z,2.42
2019-03-31T14:35:02.673Z,3.33
2019-03-31T14:37:31.303Z,3.75
2019-03-31T14:39:59.868Z,2.15
2019-03-31T14:42:28.799Z,2.30
2019-03-31T14:44:57.427Z,3.05
2019-03-31T14:47:25.944Z,5.17
2019-03-31T14:49:54.638Z,2.85
2019-03-31T14:52:27.461Z,3.00
2019-03-31T14:54:55.919Z,2.80
2019-03-31T14:57:23.959Z,2.42
2019-03-31T14:59:52.592Z,2.40
2019-03-31T15:02:21.074Z,2.90
2019-03-31T15:04:49.670Z,4.40
2019-03-31T15:07:18.301Z,2.85
2019-03-31T15:09:46.931Z,2.70
2019-03-31T15:12:15.533Z,3.47
2019-03-31T15:14:44.028Z,3.67
2019-03-31T15:17:12.667Z,3.37
2019-03-31T15:19:41.548Z,3.40
2019-03-31T15:22:10.066Z,3.72
2019-03-31T15:24:38.675Z,3.83
2019-03-31T15:27:07.333Z,3.98
2019-03-31T15:29:35.949Z,5.42
2019-03-31T15:32:04.699Z,4.10
2019-03-31T15:34:33.342Z,5.47
2019-03-31T15:37:02.052Z,4.37
2019-03-31T15:39:30.652Z,6.12
2019-03-31T15:41:59.494Z,4.70
2019-03-31T15:44:27.995Z,6.65
2019-03-31T15:46:56.661Z,6.22
2019-03-31T15:49:25.526Z,7.90
2019-03-31T15:51:54.023Z,6.40
2019-03-31T15:54:22.515Z,6.33
2019-03-31T15:56:51.250Z,7.58
2019-03-31T15:59:19.886Z,7.67
2019-03-31T16:01:48.429Z,9.05
2019-03-31T16:04:16.916Z,5.85
2019-03-31T16:06:45.553Z,6.08
2019-03-31T16:09:23.295Z,8.68
2019-03-31T16:11:53.585Z,5.72
2019-03-31T16:14:14.775Z,6.05
2019-03-31T16:16:43.342Z,7.33
2019-03-31T16:19:11.848Z,7.40
2019-03-31T16:21:43.979Z,6.05
2019-03-31T16:24:11.034Z,6.55
2019-03-31T16:26:39.608Z,6.83
2019-03-31T16:29:08.097Z,6.80
2019-03-31T16:31:36.784Z,6.92
2019-03-31T16:34:05.531Z,7.30
2019-03-31T16:36:34.020Z,7.17
2019-03-31T16:39:02.616Z,6.45
2019-03-31T16:41:31.249Z,6.30
2019-03-31T16:43:59.876Z,5.92
2019-03-31T16:46:28.409Z,6.17
2019-03-31T16:48:56.909Z,8.28
2019-03-31T16:51:25.553Z,8.25
2019-03-31T16:53:54.087Z,5.80
2019-03-31T16:56:22.720Z,6.83
2019-03-31T16:58:51.354Z,5.72
2019-03-31T17:01:19.889Z,6.22
2019-03-31T17:03:48.384Z,7.30
2019-03-31T17:06:17.120Z,8.03
2019-03-31T17:08:45.939Z,7.80
2019-03-31T17:11:14.578Z,5.47
2019-03-31T17:13:43.076Z,4.30
2019-03-31T17:16:15.275Z,8.28
2019-03-31T17:18:42.195Z,7.15
2019-03-31T17:21:10.754Z,5.92
2019-03-31T17:23:39.376Z,6.92
2019-03-31T17:26:08.012Z,8.23
2019-03-31T17:28:36.643Z,7.53
2019-03-31T17:31:05.353Z,5.28
2019-03-31T17:33:34.053Z,6.97
2019-03-31T17:36:02.607Z,7.10
2019-03-31T17:38:31.143Z,8.00
2019-03-31T17:40:59.773Z,6.22
2019-03-31T17:43:28.408Z,5.50
2019-03-31T17:45:56.937Z,8.85
2019-03-31T17:48:25.431Z,6.47
2019-03-31T17:50:54.069Z,6.87
2019-03-31T17:53:22.752Z,6.67
2019-03-31T17:55:51.386Z,7.00
2019-03-31T17:58:19.874Z,6.75
2019-03-31T18:00:48.540Z,6.87
2019-03-31T18:03:17.193Z,6.85
2019-03-31T18:05:45.678Z,7.35
2019-03-31T18:08:14.203Z,7.50
2019-03-31T18:10:42.867Z,11.45
2019-03-31T18:13:11.486Z,8.08
2019-03-31T18:15:40.155Z,9.25
2019-03-31T18:18:08.785Z,11.35
2019-03-31T18:20:37.316Z,9.75
2019-03-31T18:23:05.834Z,9.28
2019-03-31T18:25:34.480Z,10.48
2019-03-31T18:28:03.102Z,10.70
2019-03-31T18:30:31.712Z,10.08
2019-03-31T18:33:00.202Z,9.60
2019-03-31T18:35:29.039Z,8.93
2019-03-31T18:37:57.722Z,10.30
2019-03-31T18:40:34.881Z,9.05
2019-03-31T18:42:56.504Z,9.65
2019-03-31T18:45:25.326Z,10.45
2019-03-31T18:47:53.957Z,9.75
2019-03-31T18:50:22.540Z,10.78
2019-03-31T18:52:51.223Z,8.50
2019-03-31T18:55:33.305Z,8.88
2019-03-31T18:58:19.855Z,8.95
2019-03-31T19:00:56.134Z,9.75
2019-03-31T19:03:26.649Z,9.73
2019-03-31T19:06:12.915Z,10.13
2019-03-31T19:08:43.101Z,12.95
2019-03-31T19:11:15.036Z,12.95
2019-03-31T19:13:57.472Z,14.93
2019-03-31T19:16:30.574Z,14.55
2019-03-31T19:19:19.043Z,17.15
2019-03-31T19:21:52.421Z,15.18
2019-03-31T19:24:38.905Z,14.07
2019-03-31T19:27:09.043Z,15.63
2019-03-31T19:29:55.819Z,18.87
2019-03-31T19:32:42.519Z,15.35
2019-03-31T19:35:15.901Z,17.62
2019-03-31T19:37:46.182Z,18.25
2019-03-31T19:40:32.225Z,22.50
2019-03-31T19:43:14.473Z,19.35
2019-03-31T19:45:47.526Z,26.27
2019-03-31T19:48:17.808Z,20.00
2019-03-31T19:50:48.085Z,27.07
2019-03-31T19:53:34.661Z,20.65
2019-03-31T19:56:10.251Z,25.17
2019-03-31T19:58:58.911Z,31.68
2019-03-31T20:01:34.957Z,25.95
2019-03-31T20:04:05.208Z,30.60
2019-03-31T20:06:51.602Z,31.25
2019-03-31T20:09:24.903Z,31.12
2019-03-31T20:11:55.179Z,27.45
2019-03-31T20:14:40.971Z,23.07
2019-03-31T20:17:20.500Z,28.35
2019-03-31T20:19:50.740Z,27.37
2019-03-31T20:22:20.881Z,28.02
2019-03-31T20:24:54.280Z,24.95
2019-03-31T20:27:30.576Z,33.13
2019-03-31T20:30:00.719Z,35.88
2019-03-31T20:32:46.222Z,30.82
2019-03-31T20:35:25.428Z,30.68
2019-03-31T20:38:12.234Z,32.33
2019-03-31T20:40:45.262Z,31.30
2019-03-31T20:43:15.403Z,30.80
2019-03-31T20:45:44.329Z,32.03
2019-03-31T20:48:12.966Z,29.77
2019-03-31T20:50:41.461Z,27.13
2019-03-31T20:53:10.071Z,44.27
2019-03-31T20:55:38.705Z,33.90
2019-03-31T20:58:07.344Z,42.62
2019-03-31T21:00:35.872Z,41.70
2019-03-31T21:03:04.584Z,32.90
2019-03-31T21:05:33.318Z,33.80
2019-03-31T21:08:01.990Z,31.20
2019-03-31T21:10:30.493Z,31.68
2019-03-31T21:12:58.986Z,27.62
2019-03-31T21:15:27.652Z,25.65
2019-03-31T21:17:56.390Z,33.38
2019-03-31T21:20:24.895Z,43.45
2019-03-31T21:22:53.591Z,31.12
2019-03-31T21:25:22.227Z,35.30
2019-03-31T21:27:50.860Z,27.22
2019-03-31T21:30:19.749Z,37.45
2019-03-31T21:32:48.251Z,26.10
2019-03-31T21:35:16.883Z,30.37
2019-03-31T21:37:45.421Z,34.50
2019-03-31T21:40:14.048Z,25.30
2019-03-31T21:42:42.684Z,19.75
2019-03-31T21:45:11.551Z,27.42
2019-03-31T21:47:40.121Z,22.20
2019-03-31T21:50:08.893Z,35.50
2019-03-31T21:52:37.558Z,30.15
2019-03-31T21:55:07.093Z,31.37
2019-03-31T21:57:35.789Z,41.05
2019-03-31T22:00:09.919Z,29.23
2019-03-31T22:02:38.657Z,25.97
2019-03-31T22:05:08.090Z,24.90
2019-03-31T22:07:36.697Z,24.87
2019-03-31T22:10:06.901Z,23.22
2019-03-31T22:12:35.570Z,27.65
2019-03-31T22:15:05.643Z,24.57
2019-03-31T22:17:34.280Z,27.25
2019-03-31T22:20:07.301Z,25.82
2019-03-31T22:22:35.847Z,40.45
2019-03-31T22:25:06.282Z,48.63
2019-03-31T22:27:35.216Z,56.48
2019-03-31T22:30:05.850Z,51.40
2019-03-31T22:32:34.493Z,52.05
2019-03-31T22:35:03.353Z,60.33
2019-03-31T22:37:32.002Z,52.15
2019-03-31T22:40:00.640Z,55.73
2019-03-31T22:42:29.152Z,45.88
2019-03-31T22:44:58.035Z,43.33
2019-03-31T22:47:26.671Z,39.42
2019-03-31T22:49:55.210Z,37.98
2019-03-31T22:52:24.004Z,34.33
2019-03-31T22:54:52.752Z,33.13
2019-03-31T22:57:21.249Z,36.28
2019-03-31T22:59:49.929Z,34.53
2019-03-31T23:02:18.569Z,38.02
2019-03-31T23:04:47.134Z,37.85
2019-03-31T23:07:15.669Z,37.67
2019-03-31T23:09:44.379Z,36.30
2019-03-31T23:12:13.023Z,35.00
2019-03-31T23:14:41.682Z,36.77
2019-03-31T23:17:10.230Z,34.20
2019-03-31T23:19:38.867Z,36.42
2019-03-31T23:22:07.545Z,41.13
2019-03-31T23:24:36.166Z,38.17
2019-03-31T23:27:04.749Z,39.38
2019-03-31T23:29:33.420Z,40.23
2019-03-31T23:32:02.160Z,34.73
2019-03-31T23:34:30.661Z,42.67
2019-03-31T23:36:59.346Z,35.25
2019-03-31T23:39:27.868Z,34.45
2019-03-31T23:41:56.439Z,38.55
2019-03-31T23:44:25.366Z,34.48
2019-03-31T23:46:54.004Z,35.15
2019-03-31T23:49:22.561Z,30.43
2019-03-31T23:51:51.105Z,33.10
2019-03-31T23:54:19.740Z,34.98
2019-03-31T23:56:48.457Z,34.43
2019-03-31T23:59:16.980Z,28.50
